aviador You're here:

LCLK Decoded Metar

LARNACA in CYPRUS
Report Time2017-11-24 20:00:00
UTC Time2017-11-24 20:25:48
Flight Rules vfr VFR
Wind300° at 05 kt
W.Decomp.*RWY 22: 1.2 kt HW 4.9 kt RCW
W.Rank300° ranks 6
Current wind is above 300° avg. (4.9)
Visibility9999 m
Phenomena:N/A
Clouds:Few 050 Hf
Expected CloudBase > 800 ft AGL from Temp-Dew spread
CeilingNone
Temp13°C (ISA -2)
Dew Point11°C (88% RH)
AAT11.5°C
QNH1021 hPa
Density Alt-325 ft
Elevation7 ft
Report Wrong Elevation
Raw Report
LCLK 242000Z 30005KT 9999 FEW050 13/11 Q1021 NOSIG=

Extra information for LCLK:More info

Metar Taf Metar & Taf Last 4 Metars F.Rules Stats Wind Profile Meteogram Temp Stats Airport Information Weather charts Add Link Nearby VenuesMetar ALERT Operation Metar Decoded Social comments